Time;durP1;ratioP1;P1;durP2;ratioP2;P2;SDS_P1;SDS_P2;PMS_P1;PMS_P2;Temp;Humidity;BMP_temperature;BMP_pressure;BME280_temperature;BME280_humidity;BME280_pressure;Samples;Min_cycle;Max_cycle;Signal;HPM_P1;HPM_P2
2023/07/14 00:02:26;;;;;;;13.98;7.88;;;17.80;99.90;;;;;;5008002;28;20044;-91
2023/07/14 00:05:00;;;;;;;15.23;8.10;;;17.80;99.90;;;;;;5020463;28;20059;-90
2023/07/14 00:07:33;;;;;;;14.25;8.13;;;17.80;99.90;;;;;;4988345;28;20041;-90
2023/07/14 00:10:10;;;;;;;14.25;8.35;;;17.80;99.90;;;;;;5003653;28;20029;-91
2023/07/14 00:12:39;;;;;;;12.65;8.07;;;17.80;99.90;;;;;;5003971;28;20037;-90
2023/07/14 00:15:08;;;;;;;16.58;8.85;;;17.80;99.90;;;;;;5019316;28;20109;-90
2023/07/14 00:17:40;;;;;;;13.70;8.10;;;17.80;99.90;;;;;;5042958;28;20408;-91
2023/07/14 00:20:32;;;;;;;16.25;8.20;;;17.80;99.90;;;;;;5027618;28;20043;-90
2023/07/14 00:23:08;;;;;;;15.50;7.53;;;17.80;99.90;;;;;;5025978;28;20378;-90
2023/07/14 00:25:49;;;;;;;16.70;7.88;;;17.80;99.90;;;;;;5021751;28;20056;-91
2023/07/14 00:28:38;;;;;;;15.60;8.50;;;17.80;99.90;;;;;;5008600;28;20068;-91
2023/07/14 00:31:14;;;;;;;17.42;8.07;;;17.70;99.90;;;;;;5021951;28;20029;-91
2023/07/14 00:33:50;;;;;;;13.05;8.55;;;17.70;99.90;;;;;;5022993;28;20040;-92
2023/07/14 00:36:20;;;;;;;12.95;8.45;;;17.70;99.90;;;;;;5018880;28;20049;-91
2023/07/14 00:38:49;;;;;;;14.52;8.05;;;17.70;99.90;;;;;;5022827;28;20056;-91
2023/07/14 00:41:27;;;;;;;15.32;8.15;;;17.60;99.90;;;;;;5022916;28;20048;-91
2023/07/14 00:44:35;;;;;;;19.00;9.35;;;17.60;99.90;;;;;;5007963;28;20036;-91
2023/07/14 00:47:26;;;;;;;17.10;9.63;;;17.60;99.90;;;;;;4983711;28;20041;-91
2023/07/14 00:50:08;;;;;;;17.50;9.65;;;17.60;99.90;;;;;;4988355;28;20037;-91
2023/07/14 00:52:47;;;;;;;20.10;9.52;;;17.50;99.90;;;;;;5003195;28;20033;-91
2023/07/14 00:55:39;;;;;;;15.65;9.77;;;17.60;99.90;;;;;;5002764;28;20088;-90
2023/07/14 00:58:22;;;;;;;15.75;10.13;;;17.60;99.90;;;;;;5003552;28;20110;-91
2023/07/14 01:01:21;;;;;;;18.30;10.65;;;17.50;99.90;;;;;;5019058;28;20096;-91
2023/07/14 01:03:55;;;;;;;16.92;10.20;;;17.50;99.90;;;;;;5002511;28;20615;-92
2023/07/14 01:06:40;;;;;;;19.08;10.25;;;17.50;99.90;;;;;;5003427;28;20064;-91
2023/07/14 01:09:16;;;;;;;17.08;9.98;;;17.50;99.90;;;;;;4988059;28;20033;-91
2023/07/14 01:11:54;;;;;;;17.42;10.07;;;17.50;99.90;;;;;;5016928;28;20029;-91
2023/07/14 01:14:35;;;;;;;18.92;10.13;;;17.50;99.90;;;;;;5023749;28;20059;-91
2023/07/14 01:17:12;;;;;;;15.23;9.45;;;17.40;99.90;;;;;;5002584;28;20376;-91
2023/07/14 01:19:52;;;;;;;17.92;10.68;;;17.40;99.90;;;;;;5002901;28;20107;-91
2023/07/14 01:22:47;;;;;;;20.00;10.15;;;17.40;99.90;;;;;;5019250;28;20037;-91
2023/07/14 01:25:26;;;;;;;16.92;9.40;;;17.40;99.90;;;;;;5002696;28;20075;-91
2023/07/14 01:28:05;;;;;;;14.02;9.15;;;17.40;99.90;;;;;;5011072;28;20040;-91
2023/07/14 01:30:33;;;;;;;16.48;8.82;;;17.30;99.90;;;;;;5003537;28;20088;-91
2023/07/14 01:35:57;;;;;;;16.63;9.77;;;17.30;99.90;;;;;;4988199;28;20048;-91
2023/07/14 01:39:04;;;;;;;16.60;9.52;;;17.30;99.90;;;;;;5001766;28;20467;-92
2023/07/14 01:41:49;;;;;;;;;;;;;;;;;;;;;
2023/07/14 01:44:44;;;;;;;16.77;9.55;;;17.30;99.90;;;;;;5003825;28;20116;-91
2023/07/14 01:47:18;;;;;;;17.83;9.73;;;17.20;99.90;;;;;;5002884;28;20120;-91
2023/07/14 01:49:51;;;;;;;18.15;9.35;;;17.20;99.90;;;;;;5040393;28;20409;-92
2023/07/14 01:52:27;;;;;;;16.08;9.32;;;17.20;99.90;;;;;;5026079;28;20039;-91
2023/07/14 01:55:05;;;;;;;15.55;8.50;;;17.20;99.90;;;;;;5010341;28;20120;-91
2023/07/14 01:58:01;;;;;;;20.95;8.52;;;17.20;99.90;;;;;;5029133;28;20087;-91
2023/07/14 02:00:35;;;;;;;16.90;8.88;;;17.20;99.90;;;;;;5006875;28;20075;-91
2023/07/14 02:03:09;;;;;;;15.10;8.80;;;17.20;99.90;;;;;;4979643;28;20045;-91
2023/07/14 02:05:38;;;;;;;14.43;9.20;;;17.20;99.90;;;;;;5025259;28;20037;-92
2023/07/14 02:08:25;;;;;;;16.83;9.57;;;17.20;99.90;;;;;;5021793;28;20109;-90
2023/07/14 02:11:36;;;;;;;19.42;9.30;;;17.10;99.90;;;;;;5007890;28;20044;-91
2023/07/14 02:14:04;;;;;;;13.70;8.57;;;17.20;99.90;;;;;;4976917;28;20344;-91
2023/07/14 02:16:51;;;;;;;;;;;17.20;99.90;;;;;;5030651;28;20325;-91
2023/07/14 02:19:34;;;;;;;16.13;9.20;;;17.10;99.90;;;;;;5007373;28;19913;-91
2023/07/14 02:22:31;;;;;;;19.35;9.38;;;17.10;99.90;;;;;;4998235;28;20044;-91
2023/07/14 02:25:02;;;;;;;17.42;8.73;;;17.10;99.90;;;;;;5005290;28;20071;-90
2023/07/14 02:27:47;;;;;;;18.45;8.43;;;17.10;99.90;;;;;;5008446;28;20033;-91
2023/07/14 02:30:21;;;;;;;15.75;8.07;;;17.00;99.90;;;;;;5005932;28;20108;-91
2023/07/14 02:33:21;;;;;;;13.07;7.75;;;17.00;99.90;;;;;;5009337;28;20478;-91
2023/07/14 02:35:57;;;;;;;14.18;7.60;;;17.00;99.90;;;;;;5023909;28;20045;-91
2023/07/14 02:38:29;;;;;;;18.58;8.43;;;17.00;99.90;;;;;;5008299;28;20033;-91
2023/07/14 02:41:38;;;;;;;15.98;7.68;;;17.00;99.90;;;;;;5005351;28;20025;-91
2023/07/14 02:44:17;;;;;;;16.02;8.45;;;17.00;99.90;;;;;;5022382;28;20060;-91
2023/07/14 02:47:27;;;;;;;14.93;7.90;;;17.00;99.90;;;;;;5008396;28;20037;-91
2023/07/14 02:50:13;;;;;;;13.75;8.10;;;17.00;99.90;;;;;;4938035;28;20117;-91
2023/07/14 02:52:42;;;;;;;15.48;7.97;;;16.90;99.90;;;;;;4946228;28;20027;-91
2023/07/14 02:55:29;;;;;;;15.35;7.47;;;16.90;99.90;;;;;;5016907;28;20482;-91
2023/07/14 02:57:58;;;;;;;22.17;7.30;;;16.90;99.90;;;;;;5025604;28;20141;-91
2023/07/14 03:00:31;;;;;;;16.35;6.95;;;16.90;99.90;;;;;;5023987;28;20033;-91
2023/07/14 03:03:02;;;;;;;;;;;16.90;99.90;;;;;;5009907;28;20314;-91
2023/07/14 03:05:38;;;;;;;15.07;6.32;;;16.90;99.90;;;;;;5009546;28;19992;-92
2023/07/14 03:08:14;;;;;;;15.30;6.18;;;16.90;99.90;;;;;;5024646;28;20055;-91
2023/07/14 03:10:56;;;;;;;15.07;5.57;;;16.90;99.90;;;;;;5007849;28;20112;-91
2023/07/14 03:13:28;;;;;;;13.40;5.55;;;17.00;99.90;;;;;;5024455;28;20120;-91
2023/07/14 03:16:07;;;;;;;16.77;5.60;;;16.90;99.90;;;;;;5019823;28;20029;-91
2023/07/14 03:18:36;;;;;;;14.82;5.47;;;16.90;99.90;;;;;;5031835;28;20029;-91
2023/07/14 03:21:17;;;;;;;12.38;5.15;;;16.90;99.90;;;;;;5010088;28;20416;-91
2023/07/14 03:24:10;;;;;;;16.70;5.25;;;16.90;99.90;;;;;;5010626;28;20092;-91
2023/07/14 03:26:56;;;;;;;17.83;5.70;;;16.90;99.90;;;;;;5025993;28;20107;-92
2023/07/14 03:29:38;;;;;;;12.00;4.95;;;16.90;99.90;;;;;;5025504;28;20044;-91
2023/07/14 03:32:33;;;;;;;13.30;4.90;;;16.90;99.90;;;;;;5026566;28;20025;-91
2023/07/14 03:35:22;;;;;;;12.38;4.40;;;16.90;99.90;;;;;;5008771;28;20470;-91
2023/07/14 03:37:51;;;;;;;16.70;5.22;;;16.90;99.90;;;;;;5002418;28;20032;-91
2023/07/14 03:40:19;;;;;;;14.48;5.38;;;16.90;99.90;;;;;;5007985;28;20056;-91
2023/07/14 03:42:48;;;;;;;13.63;5.10;;;16.80;99.90;;;;;;5024218;28;20119;-90
2023/07/14 03:45:16;;;;;;;14.27;4.93;;;16.80;99.90;;;;;;5023052;28;20083;-90
2023/07/14 03:47:55;;;;;;;15.80;4.95;;;16.80;99.90;;;;;;5019928;28;20076;-91
2023/07/14 03:50:23;;;;;;;12.65;5.00;;;16.80;99.90;;;;;;5045840;28;20093;-91
2023/07/14 03:52:49;;;;;;;16.95;5.20;;;16.80;99.90;;;;;;5047365;28;20028;-91
2023/07/14 03:55:33;;;;;;;13.50;4.70;;;16.80;99.90;;;;;;5059638;28;20441;-91
2023/07/14 03:58:11;;;;;;;14.00;5.00;;;16.80;99.90;;;;;;5029633;28;20043;-91
2023/07/14 04:00:48;;;;;;;15.65;4.85;;;16.80;99.90;;;;;;5044385;28;20059;-90
2023/07/14 04:03:28;;;;;;;14.85;5.28;;;16.80;99.90;;;;;;5059039;28;20043;-90
2023/07/14 04:05:57;;;;;;;13.48;5.30;;;16.80;99.90;;;;;;5027400;28;20432;-90
2023/07/14 04:08:43;;;;;;;11.20;5.13;;;16.80;99.90;;;;;;5027845;28;20025;-90
2023/07/14 04:11:21;;;;;;;20.08;5.20;;;16.80;99.90;;;;;;5042551;28;20412;-91
2023/07/14 04:13:57;;;;;;;15.90;5.22;;;16.80;99.90;;;;;;5029305;28;20045;-90
2023/07/14 04:16:38;;;;;;;11.13;4.75;;;16.70;99.90;;;;;;5043209;28;20032;-90
2023/07/14 04:19:11;;;;;;;12.05;4.47;;;16.70;99.90;;;;;;5042935;28;20047;-91
2023/07/14 04:24:30;;;;;;;12.98;5.05;;;16.70;99.90;;;;;;5042927;28;20033;-90
2023/07/14 04:27:03;;;;;;;13.50;4.85;;;16.70;99.90;;;;;;5047059;28;20028;-91
2023/07/14 04:29:32;;;;;;;10.35;4.45;;;16.70;99.90;;;;;;5046424;28;20122;-91
2023/07/14 04:32:03;;;;;;;12.93;4.40;;;16.70;99.90;;;;;;5047079;28;20107;-91
2023/07/14 04:34:43;;;;;;;10.70;4.85;;;16.70;99.90;;;;;;5047955;28;20083;-91
2023/07/14 04:37:19;;;;;;;16.98;5.30;;;16.70;99.90;;;;;;5034628;28;20102;-91
2023/07/14 04:39:57;;;;;;;12.73;5.15;;;16.70;99.90;;;;;;5043588;28;20339;-91
2023/07/14 04:42:30;;;;;;;12.70;4.90;;;16.70;99.90;;;;;;5042392;28;20040;-91
2023/07/14 04:45:09;;;;;;;15.63;4.97;;;16.60;99.90;;;;;;5012692;28;20059;-91
2023/07/14 04:47:40;;;;;;;13.60;5.43;;;16.60;99.90;;;;;;5064164;28;20408;-91
2023/07/14 04:50:18;;;;;;;13.00;5.95;;;16.60;99.90;;;;;;5029510;28;20098;-91
2023/07/14 04:53:08;;;;;;;13.13;5.35;;;16.60;99.90;;;;;;5037241;28;20104;-91
2023/07/14 04:55:41;;;;;;;14.75;5.57;;;16.60;99.90;;;;;;5025820;28;20032;-90
2023/07/14 04:58:19;;;;;;;16.25;5.28;;;16.60;99.90;;;;;;5052731;28;20024;-90
2023/07/14 05:00:50;;;;;;;14.82;5.85;;;16.60;99.90;;;;;;5046572;28;20036;-91
2023/07/14 05:03:19;;;;;;;12.50;5.18;;;16.60;99.90;;;;;;5045927;28;20430;-90
2023/07/14 05:05:58;;;;;;;15.32;5.68;;;16.60;99.90;;;;;;5064385;28;20039;-90
2023/07/14 05:08:31;;;;;;;15.25;6.40;;;16.60;99.90;;;;;;5032560;28;20039;-91
2023/07/14 05:11:02;;;;;;;12.13;5.70;;;16.60;99.90;;;;;;5025841;28;20039;-90
2023/07/14 05:13:32;;;;;;;15.20;6.05;;;16.60;99.90;;;;;;5026228;28;20024;-91
2023/07/14 05:16:01;;;;;;;13.18;5.80;;;16.60;99.90;;;;;;5045572;28;20100;-90
2023/07/14 05:18:33;;;;;;;13.45;6.05;;;16.60;99.90;;;;;;5042184;28;20040;-90
2023/07/14 05:21:01;;;;;;;13.43;6.25;;;16.60;99.90;;;;;;5041960;28;20051;-90
2023/07/14 05:23:30;;;;;;;15.77;5.78;;;16.60;99.90;;;;;;5029801;28;20036;-91
2023/07/14 05:26:00;;;;;;;14.52;6.50;;;16.70;99.90;;;;;;5033063;28;20085;-90
2023/07/14 05:28:39;;;;;;;14.50;6.28;;;16.60;99.90;;;;;;5039608;28;20032;-91
2023/07/14 05:31:12;;;;;;;14.00;6.38;;;16.70;99.90;;;;;;5050609;28;20044;-90
2023/07/14 05:33:47;;;;;;;11.57;6.68;;;16.70;99.90;;;;;;5068645;28;20360;-90
2023/07/14 05:36:27;;;;;;;17.60;6.93;;;16.70;99.90;;;;;;5051281;28;20582;-90
2023/07/14 05:38:53;;;;;;;12.88;6.32;;;16.70;99.90;;;;;;5050610;28;20054;-89
2023/07/14 05:41:24;;;;;;;13.73;6.65;;;16.80;99.90;;;;;;5050496;28;20028;-89
2023/07/14 05:43:55;;;;;;;15.50;6.18;;;16.80;99.90;;;;;;5050922;28;20470;-89
2023/07/14 05:46:26;;;;;;;15.25;6.43;;;16.80;99.90;;;;;;5050711;28;20149;-90
2023/07/14 05:49:12;;;;;;;14.18;6.45;;;16.80;99.90;;;;;;5039824;28;20044;-91
2023/07/14 05:51:45;;;;;;;10.90;5.97;;;16.90;99.90;;;;;;5051130;28;20036;-89
2023/07/14 05:54:21;;;;;;;12.32;6.05;;;16.90;99.90;;;;;;5050530;28;20038;-93
2023/07/14 05:56:51;;;;;;;11.52;6.00;;;17.00;99.90;;;;;;5066727;28;20035;-89
2023/07/14 05:59:39;;;;;;;12.63;6.15;;;17.00;99.90;;;;;;5066939;28;20036;-89
2023/07/14 06:02:14;;;;;;;17.58;6.25;;;17.10;99.90;;;;;;5049346;28;20036;-90
2023/07/14 06:04:53;;;;;;;16.40;5.72;;;17.10;99.90;;;;;;5066839;28;20058;-90
2023/07/14 06:07:25;;;;;;;13.05;6.63;;;17.20;99.90;;;;;;5035904;28;20059;-90
2023/07/14 06:09:53;;;;;;;13.70;5.75;;;17.20;99.90;;;;;;5047796;28;20028;-91
2023/07/14 06:12:35;;;;;;;9.85;5.15;;;17.30;99.90;;;;;;5050309;28;20039;-91
2023/07/14 06:15:19;;;;;;;12.30;4.85;;;17.30;99.90;;;;;;5066213;28;20020;-91
2023/07/14 06:17:50;;;;;;;12.43;5.53;;;17.40;99.90;;;;;;5066264;28;20020;-92
2023/07/14 06:20:33;;;;;;;10.05;4.65;;;17.40;99.90;;;;;;5068151;28;20020;-91
2023/07/14 06:23:16;;;;;;;;;;;;;;;;;;;;;
2023/07/14 06:26:14;;;;;;;10.23;4.90;;;17.50;99.90;;;;;;5066522;28;20308;-91
2023/07/14 06:28:45;;;;;;;11.15;5.22;;;17.50;99.90;;;;;;5048007;28;20037;-92
2023/07/14 06:31:23;;;;;;;12.27;4.93;;;17.60;99.90;;;;;;5049183;28;20032;-92
2023/07/14 06:34:00;;;;;;;14.15;4.70;;;17.60;99.90;;;;;;5031130;28;20423;-91
2023/07/14 06:36:27;;;;;;;13.65;5.40;;;17.70;99.90;;;;;;5043509;28;20094;-92
2023/07/14 06:38:57;;;;;;;12.68;5.43;;;17.70;99.90;;;;;;5028743;28;20431;-91
2023/07/14 06:41:37;;;;;;;11.43;5.47;;;17.80;99.90;;;;;;5036486;28;20021;-92
2023/07/14 06:44:09;;;;;;;11.90;5.13;;;17.90;99.90;;;;;;5028872;28;20024;-92
2023/07/14 06:46:53;;;;;;;12.52;5.55;;;17.90;99.90;;;;;;5058228;28;20412;-92
2023/07/14 06:49:52;;;;;;;;;;;;;;;;;;;;;
2023/07/14 06:52:20;;;;;;;12.25;5.60;;;18.00;99.90;;;;;;5029828;28;20089;-91
2023/07/14 06:54:59;;;;;;;;;;;;;;;;;;;;;
2023/07/14 06:57:33;;;;;;;13.25;5.47;;;18.00;99.90;;;;;;5060881;28;20035;-91
2023/07/14 07:00:24;;;;;;;10.07;5.10;;;18.00;99.90;;;;;;5043724;28;20450;-92
2023/07/14 07:02:49;;;;;;;9.52;5.00;;;18.10;99.90;;;;;;5043237;28;20040;-92
2023/07/14 07:05:20;;;;;;;12.68;5.45;;;18.10;99.90;;;;;;5027327;28;20028;-92
2023/07/14 07:07:51;;;;;;;15.00;5.47;;;18.20;99.90;;;;;;5039618;28;20126;-92
2023/07/14 07:10:48;;;;;;;9.50;4.72;;;18.20;99.90;;;;;;5049921;28;20055;-92
2023/07/14 07:13:16;;;;;;;11.18;4.90;;;18.20;99.90;;;;;;5051207;28;20288;-92
2023/07/14 07:15:45;;;;;;;26.55;5.90;;;18.30;99.90;;;;;;5045178;28;20064;-93
2023/07/14 07:18:38;;;;;;;14.60;5.30;;;18.30;99.90;;;;;;5053021;28;20035;-92
2023/07/14 07:21:12;;;;;;;10.57;4.63;;;18.30;99.90;;;;;;5048536;28;20036;-93
2023/07/14 07:23:44;;;;;;;8.52;4.43;;;18.40;99.90;;;;;;5047065;28;20039;-93
2023/07/14 07:26:20;;;;;;;10.30;4.40;;;18.40;99.90;;;;;;5067055;28;20060;-93
2023/07/14 07:28:49;;;;;;;11.25;4.88;;;18.50;99.90;;;;;;5047132;28;20082;-93
2023/07/14 07:31:22;;;;;;;8.20;3.97;;;18.60;99.90;;;;;;5048285;28;20027;-93
2023/07/14 07:33:54;;;;;;;9.30;4.43;;;18.60;99.90;;;;;;5047335;28;20109;-93
2023/07/14 07:36:42;;;;;;;11.38;4.28;;;18.70;99.90;;;;;;5052658;28;20044;-93
2023/07/14 07:39:11;;;;;;;14.38;4.95;;;18.80;99.90;;;;;;5046854;28;20035;-92
2023/07/14 07:41:51;;;;;;;9.35;3.80;;;18.80;99.90;;;;;;5048483;28;20088;-94
2023/07/14 07:44:22;;;;;;;12.98;4.72;;;18.90;99.90;;;;;;5044536;28;20036;-93
2023/07/14 07:46:50;;;;;;;10.02;4.57;;;18.90;99.90;;;;;;5043175;28;20494;-93
2023/07/14 07:49:17;;;;;;;9.43;4.20;;;18.90;99.90;;;;;;5027373;28;20036;-94
2023/07/14 07:51:43;;;;;;;9.75;4.38;;;19.00;99.90;;;;;;5044361;28;20048;-93
2023/07/14 07:54:18;;;;;;;10.13;4.40;;;19.10;99.90;;;;;;5028403;28;20020;-93
2023/07/14 07:57:08;;;;;;;9.60;3.88;;;19.20;99.90;;;;;;5035054;28;20047;-93
2023/07/14 07:59:39;;;;;;;9.40;3.97;;;19.30;99.90;;;;;;5026750;28;20040;-93
2023/07/14 08:02:08;;;;;;;11.60;4.35;;;19.30;99.90;;;;;;5047686;28;20028;-93
2023/07/14 08:04:38;;;;;;;8.55;3.83;;;19.30;99.90;;;;;;5032189;28;20143;-92
2023/07/14 08:07:52;;;;;;;8.90;3.40;;;19.20;99.90;;;;;;5044360;28;20024;-93
2023/07/14 08:10:54;;;;;;;9.35;3.90;;;19.10;99.90;;;;;;5066494;28;20433;-93
2023/07/14 08:14:04;;;;;;;;;;;;;;;;;;;;;
2023/07/14 08:16:35;;;;;;;7.50;3.10;;;19.20;99.90;;;;;;5043502;28;20035;-93
2023/07/14 08:19:36;;;;;;;11.13;3.75;;;19.30;99.90;;;;;;5028102;28;20040;-93
2023/07/14 08:22:27;;;;;;;7.85;3.05;;;19.40;99.90;;;;;;5049818;28;20086;-93
2023/07/14 08:25:28;;;;;;;9.93;4.07;;;19.60;99.90;;;;;;5047691;28;20040;-93
2023/07/14 08:28:04;;;;;;;10.30;3.33;;;19.60;99.90;;;;;;5043354;28;20033;-93
2023/07/14 08:31:00;;;;;;;8.25;3.25;;;19.60;99.90;;;;;;5043256;28;20064;-93
2023/07/14 08:34:15;;;;;;;;;;;;;;;;;;;;;
2023/07/14 08:37:21;;;;;;;9.82;3.30;;;19.80;99.90;;;;;;5049516;28;20056;-93
2023/07/14 08:40:32;;;;;;;8.32;3.20;;;20.00;99.90;;;;;;5046735;28;20036;-92
2023/07/14 08:43:20;;;;;;;8.95;3.10;;;20.00;99.90;;;;;;5043225;28;20105;-92
2023/07/14 08:46:44;;;;;;;;;;;;;;;;;;;;;
2023/07/14 08:50:08;;;;;;;7.82;3.03;;;20.30;99.90;;;;;;5041635;28;20119;-93
2023/07/14 08:52:52;;;;;;;12.55;3.75;;;20.40;99.90;;;;;;5028801;28;20455;-91
2023/07/14 08:55:35;;;;;;;18.92;3.75;;;20.60;99.90;;;;;;5059427;28;20028;-93
2023/07/14 08:58:50;;;;;;;;;;;;;;;;;;;;;
2023/07/14 09:02:21;;;;;;;;;;;;;;;;;;;;;
2023/07/14 09:05:36;;;;;;;6.55;2.35;;;21.00;99.90;;;;;;5055358;28;20345;-93
2023/07/14 09:08:42;;;;;;;9.85;2.90;;;20.90;99.90;;;;;;5047970;28;20082;-92
2023/07/14 09:15:11;;;;;;;8.77;3.03;;;21.00;99.90;;;;;;4946842;28;20114;-93
2023/07/14 09:17:53;;;;;;;5.30;2.50;;;21.20;99.90;;;;;;4958493;28;20143;-93
2023/07/14 09:20:55;;;;;;;7.32;2.72;;;21.30;99.90;;;;;;4961066;28;20035;-93
2023/07/14 09:24:09;;;;;;;6.45;2.70;;;21.50;99.90;;;;;;5061569;28;20119;-93
2023/07/14 09:27:00;;;;;;;5.95;2.50;;;21.70;99.90;;;;;;5042776;28;20048;-93
2023/07/14 09:30:29;;;;;;;8.18;2.70;;;21.70;99.90;;;;;;5059093;28;20071;-93
2023/07/14 09:36:34;;;;;;;;;;;;;;;;;;;;;
2023/07/14 09:40:09;;;;;;;;;;;;;;;;;;;;;
2023/07/14 09:43:12;;;;;;;12.20;4.05;;;21.70;99.90;;;;;;5044032;28;20377;-93
2023/07/14 09:46:27;;;;;;;;;;;;;;;;;;;;;
2023/07/14 09:49:43;;;;;;;;;;;;;;;;;;;;;
2023/07/14 09:53:28;;;;;;;8.57;3.58;;;21.40;99.90;;;;;;5059120;28;20053;-93
2023/07/14 09:56:36;;;;;;;10.57;3.80;;;21.30;99.90;;;;;;4998342;28;20057;-94
2023/07/14 09:59:42;;;;;;;8.57;3.40;;;21.20;99.90;;;;;;5042302;28;20028;-93
2023/07/14 10:02:50;;;;;;;8.70;3.50;;;21.10;99.90;;;;;;5063844;28;20062;-93
2023/07/14 10:06:25;;;;;;;14.90;3.95;;;21.00;99.90;;;;;;5052846;28;20060;-92
2023/07/14 10:09:54;;;;;;;8.52;3.78;;;20.90;99.90;;;;;;5079830;28;20119;-92
2023/07/14 10:12:51;;;;;;;8.65;3.83;;;20.90;99.90;;;;;;5038663;28;20029;-92
2023/07/14 10:15:52;;;;;;;9.73;3.90;;;21.00;99.90;;;;;;5049752;28;20024;-92
2023/07/14 10:18:49;;;;;;;10.07;3.65;;;21.00;99.90;;;;;;5046889;28;20027;-92
2023/07/14 10:21:34;;;;;;;11.40;3.50;;;21.30;99.90;;;;;;5030219;28;20328;-92
2023/07/14 10:24:15;;;;;;;8.88;3.65;;;21.50;99.90;;;;;;5029689;28;20040;-92
2023/07/14 10:27:09;;;;;;;;;;;;;;;;;;;;;
2023/07/14 10:29:49;;;;;;;11.43;3.28;;;21.70;99.90;;;;;;5053841;28;20100;-92
2023/07/14 10:32:38;;;;;;;9.20;3.90;;;21.80;99.90;;;;;;5048680;28;20032;-92
2023/07/14 10:35:37;;;;;;;11.02;4.20;;;21.90;99.90;;;;;;5066815;28;20028;-92
2023/07/14 10:39:00;;;;;;;9.60;4.00;;;21.80;99.90;;;;;;5066233;28;20466;-93
2023/07/14 10:41:41;;;;;;;15.68;4.75;;;21.70;99.90;;;;;;4961318;28;20122;-91
2023/07/14 10:44:45;;;;;;;11.15;4.13;;;21.70;99.90;;;;;;5051346;28;20125;-93
2023/07/14 10:48:06;;;;;;;8.93;4.05;;;21.60;99.90;;;;;;5042290;28;20028;-91
2023/07/14 10:51:08;;;;;;;11.43;4.18;;;21.70;99.90;;;;;;4982146;28;20030;-91
2023/07/14 10:54:16;;;;;;;9.57;4.65;;;21.80;99.90;;;;;;4968860;28;20034;-91
2023/07/14 10:57:20;;;;;;;10.43;4.30;;;21.90;99.90;;;;;;5043416;28;20400;-91
2023/07/14 11:00:19;;;;;;;11.38;4.18;;;22.10;99.90;;;;;;5054886;28;20036;-92
2023/07/14 11:03:11;;;;;;;8.00;4.05;;;22.10;99.90;;;;;;5047887;28;20085;-92
2023/07/14 11:05:55;;;;;;;7.10;3.88;;;22.20;99.90;;;;;;5028542;28;20064;-92
2023/07/14 11:08:37;;;;;;;10.00;3.75;;;22.20;99.90;;;;;;5041818;28;20020;-92
2023/07/14 11:11:30;;;;;;;9.90;3.75;;;22.20;99.90;;;;;;5039002;28;20062;-92
2023/07/14 11:14:20;;;;;;;8.82;3.30;;;22.30;99.90;;;;;;5031650;28;20170;-92
2023/07/14 11:17:10;;;;;;;7.55;3.65;;;22.30;99.90;;;;;;5051576;28;20032;-92
2023/07/14 11:19:59;;;;;;;8.93;3.92;;;22.40;99.90;;;;;;5050485;28;20040;-93
2023/07/14 11:23:20;;;;;;;7.85;3.30;;;22.50;99.90;;;;;;5052043;28;20458;-92
2023/07/14 11:26:05;;;;;;;9.68;4.00;;;22.50;99.90;;;;;;5034580;28;20064;-91
2023/07/14 11:29:05;;;;;;;7.18;3.35;;;22.60;99.90;;;;;;5044518;28;20097;-92
2023/07/14 11:31:36;;;;;;;11.68;3.90;;;22.70;99.90;;;;;;5059835;28;20063;-91
2023/07/14 11:34:29;;;;;;;9.30;3.80;;;22.80;99.90;;;;;;5029452;28;20028;-90
2023/07/14 11:37:38;;;;;;;9.60;4.30;;;22.80;99.90;;;;;;5052010;28;20128;-91
2023/07/14 11:40:21;;;;;;;12.20;4.05;;;22.80;99.90;;;;;;5040687;28;20032;-91
2023/07/14 11:43:01;;;;;;;12.43;4.38;;;23.00;99.90;;;;;;5055627;28;20119;-90
2023/07/14 11:45:40;;;;;;;9.95;4.25;;;22.90;99.90;;;;;;5043968;28;20032;-91
2023/07/14 11:48:54;;;;;;;8.10;4.03;;;22.90;99.90;;;;;;5055391;28;20071;-92
2023/07/14 11:51:51;;;;;;;9.52;4.05;;;23.00;99.90;;;;;;5051287;28;20036;-92
2023/07/14 11:55:32;;;;;;;12.02;4.30;;;23.10;99.90;;;;;;5059079;28;20039;-92
2023/07/14 12:02:41;;;;;;;8.25;4.10;;;23.00;99.90;;;;;;4990345;28;20081;-92
2023/07/14 12:05:17;;;;;;;12.07;5.35;;;23.00;99.90;;;;;;5049536;28;20040;-92
2023/07/14 12:08:20;;;;;;;9.57;4.68;;;23.00;99.90;;;;;;5047899;28;20039;-92
2023/07/14 12:10:51;;;;;;;;;;;23.10;99.90;;;;;;5029656;28;20020;-91
2023/07/14 12:13:35;;;;;;;12.27;4.90;;;23.10;99.90;;;;;;5034247;28;20011;-92
2023/07/14 12:16:32;;;;;;;11.00;4.75;;;23.20;99.90;;;;;;5066704;28;20444;-92
2023/07/14 12:19:37;;;;;;;;;;;;;;;;;;;;;
2023/07/14 12:22:10;;;;;;;9.82;4.35;;;23.30;99.90;;;;;;5028351;28;20036;-92
2023/07/14 12:24:50;;;;;;;11.40;5.25;;;23.30;99.90;;;;;;5040946;28;20028;-91
2023/07/14 12:27:45;;;;;;;12.68;5.00;;;23.30;99.90;;;;;;5059286;28;20519;-91
2023/07/14 12:30:30;;;;;;;11.30;5.20;;;23.20;99.90;;;;;;5046230;28;20024;-91
2023/07/14 12:33:13;;;;;;;12.20;5.07;;;23.20;99.90;;;;;;5045293;28;20029;-92
2023/07/14 12:35:44;;;;;;;12.75;5.65;;;23.30;99.90;;;;;;5030210;28;20043;-92
2023/07/14 12:38:37;;;;;;;;;;;;;;;;;;;;;
2023/07/14 12:41:22;;;;;;;;;;;;;;;;;;;;;
2023/07/14 12:44:25;;;;;;;11.68;5.22;;;23.30;99.90;;;;;;5062845;28;20390;-92
2023/07/14 12:46:57;;;;;;;12.60;5.32;;;23.20;99.90;;;;;;5046884;28;20031;-92
2023/07/14 12:49:42;;;;;;;11.45;5.45;;;23.20;99.90;;;;;;5047370;28;20024;-92
2023/07/14 12:52:32;;;;;;;11.98;5.00;;;23.10;99.90;;;;;;5046188;28;20115;-91
2023/07/14 12:55:18;;;;;;;10.18;5.28;;;22.90;99.90;;;;;;5046249;28;20104;-92
2023/07/14 12:58:11;;;;;;;10.90;5.18;;;22.90;99.90;;;;;;5063376;28;20020;-92
2023/07/14 13:00:55;;;;;;;;;;;;;;;;;;;;;
2023/07/14 13:03:47;;;;;;;9.80;5.25;;;22.70;99.90;;;;;;5062542;28;20126;-91
2023/07/14 13:06:33;;;;;;;10.57;4.32;;;22.60;99.90;;;;;;5048399;28;20089;-92
2023/07/14 13:09:49;;;;;;;12.38;4.80;;;22.50;99.90;;;;;;5052974;28;20115;-92
2023/07/14 13:12:30;;;;;;;;;;;;;;;;;;;;;
2023/07/14 13:15:12;;;;;;;11.85;4.97;;;22.40;99.90;;;;;;5048637;28;20035;-91
2023/07/14 13:17:51;;;;;;;12.32;5.38;;;22.30;99.90;;;;;;5048214;28;20111;-91
2023/07/14 13:20:46;;;;;;;12.30;5.18;;;22.20;99.90;;;;;;5028997;28;20323;-90
2023/07/14 13:23:24;;;;;;;11.88;5.13;;;22.20;99.90;;;;;;5045684;28;20369;-92
2023/07/14 13:26:01;;;;;;;12.10;5.53;;;22.20;99.90;;;;;;5039420;28;20411;-91
2023/07/14 13:28:57;;;;;;;11.32;6.07;;;22.10;99.90;;;;;;5045108;28;20118;-94
2023/07/14 13:31:39;;;;;;;13.30;5.85;;;22.10;99.90;;;;;;5051003;28;20071;-91
2023/07/14 13:34:51;;;;;;;12.38;5.90;;;22.10;99.90;;;;;;5046214;28;20352;-90
2023/07/14 13:38:15;;;;;;;14.52;6.75;;;22.10;99.90;;;;;;5055795;28;20048;-93
2023/07/14 13:40:49;;;;;;;12.07;6.47;;;22.20;99.90;;;;;;5033094;28;20171;-91
2023/07/14 13:43:24;;;;;;;13.10;6.33;;;22.20;99.90;;;;;;5058461;28;20114;-94
2023/07/14 13:46:24;;;;;;;10.85;5.80;;;22.40;99.90;;;;;;5053853;28;20711;-94
2023/07/14 13:49:22;;;;;;;14.85;6.97;;;22.40;99.90;;;;;;5066157;28;20032;-91
2023/07/14 13:52:04;;;;;;;11.07;6.80;;;22.40;99.90;;;;;;5061650;28;20689;-92
2023/07/14 13:55:24;;;;;;;;;;;;;;;;;;;;;
2023/07/14 13:58:11;;;;;;;;;;;;;;;;;;;;;
2023/07/14 14:00:48;;;;;;;12.35;6.22;;;22.70;99.90;;;;;;5043929;28;20073;-91
2023/07/14 14:03:24;;;;;;;12.13;5.85;;;22.80;99.90;;;;;;5040281;28;20054;-93
2023/07/14 14:06:38;;;;;;;14.70;6.28;;;22.90;99.90;;;;;;5039191;28;20040;-93
2023/07/14 14:09:54;;;;;;;12.18;5.65;;;22.90;99.90;;;;;;5052380;28;20033;-95
2023/07/14 14:15:49;;;;;;;12.60;5.88;;;22.80;99.90;;;;;;5050710;28;20025;-93
2023/07/14 14:22:27;;;;;;;;;;;;;;;;;;;;;
2023/07/14 14:25:44;;;;;;;12.95;6.38;;;23.00;99.90;;;;;;5063620;28;20045;-94
2023/07/14 14:29:07;;;;;;;;;;;;;;;;;;;;;
2023/07/14 14:32:26;;;;;;;11.90;6.38;;;23.00;99.90;;;;;;5065814;28;20044;-92
2023/07/14 14:35:35;;;;;;;11.45;5.85;;;22.80;99.90;;;;;;5059942;28;20115;-94
2023/07/14 14:38:27;;;;;;;15.00;6.65;;;22.90;99.90;;;;;;5047505;28;20036;-95
2023/07/14 14:41:27;;;;;;;13.60;6.47;;;22.80;99.90;;;;;;5060185;28;20044;-94
2023/07/14 14:44:34;;;;;;;;;;;;;;;;;;;;;
2023/07/14 14:47:48;;;;;;;13.88;6.20;;;22.70;99.90;;;;;;5053156;28;20036;-93
2023/07/14 14:50:42;;;;;;;13.45;5.93;;;22.70;99.90;;;;;;5039926;28;20344;-91
2023/07/14 14:53:18;;;;;;;13.23;6.28;;;22.70;99.90;;;;;;5058460;28;20028;-91
2023/07/14 14:55:52;;;;;;;12.52;6.30;;;22.70;99.90;;;;;;5028418;28;20024;-91
2023/07/14 15:02:20;;;;;;;13.48;6.28;;;22.80;99.90;;;;;;5059301;28;20059;-94
2023/07/14 15:05:37;;;;;;;13.10;5.50;;;22.90;99.90;;;;;;5024326;28;20037;-93
2023/07/14 15:08:39;;;;;;;11.00;5.50;;;23.10;99.90;;;;;;5053958;28;20079;-91
2023/07/14 15:12:31;;;;;;;11.30;6.07;;;23.20;99.90;;;;;;5038067;28;20028;-92
2023/07/14 15:15:50;;;;;;;12.15;5.78;;;23.40;99.80;;;;;;5044903;28;20076;-92
2023/07/14 15:18:40;;;;;;;;;;;23.40;99.70;;;;;;5055582;28;20648;-92